Terminal Aerodrome Forecast
Issued by NWS

Home | Current Version | Previous Version | Text Only | Print | Product List | Glossary On
Versions: 1 2 3 4 5 6 7 8 9 10 11 12 13 14 15 16 17 18 19 20 21 22 23 24 25 26 27 28 29 30 31 32
000
FTUS42 KKEY 290141 AAA
TAFMTH
TAF AMD
KMTH 290141Z 2902/2924 13010G18KT P6SM VCSH SCT018 SCT200
      TEMPO 2902/2904 5SM SHRA SCT015 BKN030
     FM291200 14009G17KT P6SM VCSH SCT020 BKN050=

USA.gov is the U.S. government's official web portal to all federal, state and local government web resources and services.